Time;durP1;ratioP1;P1;durP2;ratioP2;P2;SDS_P1;SDS_P2;PMS_P1;PMS_P2;Temp;Humidity;BMP_temperature;BMP_pressure;BME280_temperature;BME280_humidity;BME280_pressure;Samples;Min_cycle;Max_cycle;Signal;HPM_P1;HPM_P2
2023/05/08 00:02:24;;;;;;;16.10;11.40;;;;;;;12.01;100.00;102132.34;5023804;28;20048;-77
2023/05/08 00:04:50;;;;;;;16.20;11.93;;;;;;;11.99;100.00;102128.84;5029368;28;20072;-77
2023/05/08 00:07:15;;;;;;;16.77;11.95;;;;;;;11.98;100.00;102121.81;5028612;28;20036;-76
2023/05/08 00:09:41;;;;;;;16.17;11.95;;;;;;;11.96;100.00;102126.31;5028298;28;20045;-76
2023/05/08 00:12:07;;;;;;;15.57;11.15;;;;;;;11.92;100.00;102125.53;5001823;28;20040;-78
2023/05/08 00:14:32;;;;;;;17.85;12.00;;;;;;;11.89;100.00;102130.94;5027381;28;20048;-77
2023/05/08 00:16:58;;;;;;;19.42;13.02;;;;;;;11.86;100.00;102128.38;5026437;28;20063;-77
2023/05/08 00:19:23;;;;;;;18.27;12.25;;;;;;;11.84;100.00;102132.88;5022783;28;20029;-76
2023/05/08 00:21:49;;;;;;;14.60;11.32;;;;;;;11.80;100.00;102129.44;5026033;28;20045;-77
2023/05/08 00:24:14;;;;;;;16.27;11.05;;;;;;;11.76;100.00;102138.41;5027202;28;20051;-77
2023/05/08 00:26:40;;;;;;;16.67;11.82;;;;;;;11.73;100.00;102134.97;5026916;28;20037;-77
2023/05/08 00:29:06;;;;;;;17.92;11.93;;;;;;;11.68;100.00;102129.78;5024168;28;20056;-77
2023/05/08 00:31:32;;;;;;;18.10;12.23;;;;;;;11.64;100.00;102130.78;5005488;28;20156;-77
2023/05/08 00:33:57;;;;;;;17.33;11.40;;;;;;;11.58;100.00;102131.84;5026987;28;20040;-77
2023/05/08 00:36:23;;;;;;;17.05;11.68;;;;;;;11.52;100.00;102124.94;5010305;28;20044;-77
2023/05/08 00:38:49;;;;;;;17.00;11.57;;;;;;;11.51;100.00;102119.69;5024162;28;20643;-78
2023/05/08 00:41:15;;;;;;;18.17;11.43;;;;;;;11.50;100.00;102124.09;5027840;28;20037;-78
2023/05/08 00:43:40;;;;;;;17.80;11.45;;;;;;;11.45;100.00;102125.16;5026912;28;20052;-78
2023/05/08 00:46:08;;;;;;;17.80;12.10;;;;;;;11.41;100.00;102119.06;5025150;28;20065;-77
2023/05/08 00:48:34;;;;;;;15.60;10.90;;;;;;;11.37;100.00;102115.66;5027917;28;20029;-78
2023/05/08 00:51:02;;;;;;;16.60;11.68;;;;;;;11.36;100.00;102113.03;5025263;28;20039;-78
2023/05/08 00:53:29;;;;;;;18.92;12.10;;;;;;;11.31;100.00;102118.47;5026496;28;21513;-78
2023/05/08 00:55:55;;;;;;;17.58;11.68;;;;;;;11.28;100.00;102108.81;5023678;28;20064;-78
2023/05/08 00:58:22;;;;;;;16.30;11.13;;;;;;;11.27;100.00;102117.69;5028391;28;20748;-78
2023/05/08 01:00:50;;;;;;;17.30;11.55;;;;;;;11.25;100.00;102118.63;5014244;28;20517;-77
2023/05/08 01:03:15;;;;;;;16.15;11.40;;;;;;;11.23;100.00;102116.03;5030249;28;20041;-78
2023/05/08 01:05:42;;;;;;;18.83;12.00;;;;;;;11.21;100.00;102117.84;5029470;28;20395;-77
2023/05/08 01:08:07;;;;;;;17.88;11.52;;;;;;;11.18;100.00;102117.06;5028220;28;20041;-77
2023/05/08 01:10:46;;;;;;;17.85;12.02;;;;;;;11.14;100.00;102121.59;5029811;28;20029;-77
2023/05/08 01:13:28;;;;;;;18.13;11.40;;;;;;;11.12;100.00;102126.94;5025760;28;20037;-77
2023/05/08 01:15:59;;;;;;;20.73;12.18;;;;;;;11.08;100.00;102129.72;5028067;28;20588;-77
2023/05/08 01:18:33;;;;;;;19.52;12.13;;;;;;;11.07;100.00;102125.31;5009768;28;20582;-77
2023/05/08 01:21:04;;;;;;;19.98;12.45;;;;;;;11.04;100.00;102120.09;5029120;28;20124;-77
2023/05/08 01:23:52;;;;;;;16.52;11.52;;;;;;;11.02;100.00;102121.91;5031101;28;20930;-78
2023/05/08 01:26:30;;;;;;;20.98;11.38;;;;;;;10.98;100.00;102127.31;5028845;28;20045;-77
2023/05/08 01:29:16;;;;;;;20.33;12.20;;;;;;;10.97;100.00;102130.88;5031488;28;20115;-77
2023/05/08 01:31:58;;;;;;;15.65;10.75;;;;;;;10.95;100.00;102132.69;5031094;28;20730;-77
2023/05/08 01:34:26;;;;;;;18.70;11.77;;;;;;;10.91;100.00;102133.69;5026016;28;20147;-77
2023/05/08 01:37:01;;;;;;;18.05;11.57;;;;;;;10.90;100.00;102133.72;5026428;28;20099;-77
2023/05/08 01:39:41;;;;;;;19.02;11.77;;;;;;;10.89;100.00;102135.50;5023203;28;20044;-77
2023/05/08 01:42:11;;;;;;;20.70;12.55;;;;;;;10.87;100.00;102132.00;5028120;28;20142;-77
2023/05/08 01:44:40;;;;;;;16.55;11.07;;;;;;;10.84;100.00;102138.25;5030969;28;20083;-77
2023/05/08 01:47:08;;;;;;;20.10;12.10;;;;;;;10.84;100.00;102134.75;5027334;28;20064;-77
2023/05/08 01:49:57;;;;;;;19.80;12.63;;;;;;;10.82;100.00;102136.56;5029040;28;20048;-77
2023/05/08 01:52:31;;;;;;;19.90;11.88;;;;;;;10.79;100.00;102139.31;5026852;28;20535;-77
2023/05/08 01:55:00;;;;;;;19.50;12.10;;;;;;;10.79;100.00;102140.16;5030081;28;20533;-78
2023/05/08 01:57:27;;;;;;;18.98;12.27;;;;;;;10.77;100.00;102147.28;5024167;28;20051;-78
2023/05/08 01:59:55;;;;;;;19.88;12.43;;;;;;;10.77;100.00;102141.09;4998281;28;20079;-77
2023/05/08 02:02:21;;;;;;;19.65;12.27;;;;;;;10.74;100.00;102150.03;5023079;28;20168;-78
2023/05/08 02:04:48;;;;;;;19.98;12.65;;;;;;;10.73;100.00;102153.53;5028570;28;20116;-78
2023/05/08 02:07:14;;;;;;;21.73;12.93;;;;;;;10.73;100.00;102154.44;5022706;28;20040;-77
2023/05/08 02:09:41;;;;;;;19.75;12.23;;;;;;;10.72;100.00;102155.34;5028242;28;20075;-78
2023/05/08 02:12:07;;;;;;;20.30;12.02;;;;;;;10.71;100.00;102155.38;5027213;28;20037;-77
2023/05/08 02:14:33;;;;;;;21.60;13.15;;;;;;;10.70;100.00;102157.16;5027227;28;20541;-78
2023/05/08 02:17:01;;;;;;;21.15;12.90;;;;;;;10.70;100.00;102157.16;5024996;28;20072;-78
2023/05/08 02:19:28;;;;;;;20.05;12.07;;;;;;;10.69;100.00;102158.06;5009954;28;20052;-78
2023/05/08 02:21:54;;;;;;;21.58;12.85;;;;;;;10.71;100.00;102165.97;5027924;28;20626;-77
2023/05/08 02:24:20;;;;;;;18.52;11.65;;;;;;;10.72;100.00;102159.75;5026450;28;20720;-77
2023/05/08 02:26:46;;;;;;;20.00;12.23;;;;;;;10.72;100.00;102162.41;5030013;28;20045;-77
2023/05/08 02:29:12;;;;;;;18.98;12.32;;;;;;;10.72;100.00;102158.00;5012047;28;20087;-77
2023/05/08 02:31:39;;;;;;;19.70;12.52;;;;;;;10.73;100.00;102154.44;5026156;28;20118;-77
2023/05/08 02:34:05;;;;;;;21.40;12.65;;;;;;;10.76;100.00;102160.56;5009496;28;20044;-77
2023/05/08 02:36:31;;;;;;;21.02;13.07;;;;;;;10.75;100.00;102166.75;5027956;28;20118;-78
2023/05/08 02:38:59;;;;;;;23.35;12.95;;;;;;;10.76;100.00;102165.84;5027913;28;20138;-77
2023/05/08 02:41:31;;;;;;;21.48;13.07;;;;;;;10.76;100.00;102157.91;5026029;28;20494;-77
2023/05/08 02:43:57;;;;;;;18.40;12.13;;;;;;;10.75;100.00;102153.53;5027714;28;20031;-76
2023/05/08 02:46:45;;;;;;;18.77;12.80;;;;;;;10.77;100.00;102164.94;5011869;28;21052;-77
2023/05/08 02:49:23;;;;;;;20.33;12.68;;;;;;;10.74;100.00;102157.97;5009512;28;20076;-77
2023/05/08 02:52:04;;;;;;;20.65;12.60;;;;;;;10.75;100.00;102158.81;5027664;28;20056;-78
2023/05/08 02:54:48;;;;;;;20.85;12.35;;;;;;;10.75;100.00;102150.88;5027742;28;20052;-77
2023/05/08 02:57:29;;;;;;;19.23;12.18;;;;;;;10.78;100.00;102153.47;5027606;28;20032;-76
2023/05/08 03:00:22;;;;;;;20.00;12.13;;;;;;;10.77;100.00;102146.41;5021439;28;20036;-77
2023/05/08 03:03:17;;;;;;;20.58;12.88;;;;;;;10.77;100.00;102146.41;5025442;28;20394;-77
2023/05/08 03:05:48;;;;;;;20.38;12.55;;;;;;;10.75;100.00;102140.28;5019820;28;20055;-77
2023/05/08 03:08:17;;;;;;;19.08;12.35;;;;;;;10.73;100.00;102137.66;5024566;28;20048;-77
2023/05/08 03:10:45;;;;;;;20.77;12.32;;;;;;;10.71;100.00;102127.13;5027758;28;20046;-76
2023/05/08 03:13:13;;;;;;;20.13;12.35;;;;;;;10.69;100.00;102131.56;5027331;28;20036;-77
2023/05/08 03:15:48;;;;;;;18.40;12.18;;;;;;;10.65;100.00;102129.94;5004780;28;20041;-77
2023/05/08 03:18:16;;;;;;;19.52;12.75;;;;;;;10.64;100.00;102133.50;5024160;28;20029;-77
2023/05/08 03:20:45;;;;;;;20.73;13.05;;;;;;;10.59;100.00;102124.78;5028143;28;20039;-78
2023/05/08 03:23:12;;;;;;;22.27;13.52;;;;;;;10.55;100.00;102125.75;5024165;28;20024;-78
2023/05/08 03:25:41;;;;;;;21.17;12.93;;;;;;;10.51;100.00;102121.47;5023619;28;20040;-78
2023/05/08 03:28:07;;;;;;;20.20;12.77;;;;;;;10.49;100.00;102113.53;5027321;28;20507;-78
2023/05/08 03:30:37;;;;;;;20.75;12.45;;;;;;;10.43;100.00;102119.00;5026249;28;20045;-77
2023/05/08 03:33:03;;;;;;;21.15;12.45;;;;;;;10.40;100.00;102119.91;5007645;28;20159;-78
2023/05/08 03:35:30;;;;;;;20.38;12.57;;;;;;;10.36;100.00;102123.53;5027102;28;20111;-78
2023/05/08 03:37:57;;;;;;;20.98;12.55;;;;;;;10.30;100.00;102113.94;5027169;28;20483;-78
2023/05/08 03:40:23;;;;;;;22.20;12.65;;;;;;;10.28;100.00;102117.53;5026484;28;20041;-77
2023/05/08 03:42:59;;;;;;;21.77;12.90;;;;;;;10.24;100.00;102124.69;5027211;28;20095;-77
2023/05/08 03:45:25;;;;;;;22.85;12.88;;;;;;;10.21;100.00;102130.06;5027300;28;20373;-77
2023/05/08 03:47:55;;;;;;;22.05;12.85;;;;;;;10.19;100.00;102116.84;5004220;28;20037;-77
2023/05/08 03:50:21;;;;;;;20.35;12.50;;;;;;;10.15;100.00;102120.47;5029180;28;20021;-77
2023/05/08 03:52:47;;;;;;;20.17;12.73;;;;;;;10.13;100.00;102121.44;4988003;28;20037;-77
2023/05/08 03:55:13;;;;;;;22.85;13.57;;;;;;;10.10;100.00;102117.09;5027554;28;20045;-77
2023/05/08 03:57:49;;;;;;;23.30;13.00;;;;;;;10.07;100.00;102111.00;5043467;28;20043;-76
2023/05/08 04:00:25;;;;;;;20.80;12.40;;;;;;;10.05;100.00;102103.09;5022221;28;20036;-79
2023/05/08 04:03:21;;;;;;;20.48;12.60;;;;;;;10.03;100.00;102105.75;5029108;28;20692;-78
2023/05/08 04:05:58;;;;;;;23.00;13.40;;;;;;;10.00;100.00;102104.97;5026086;28;20075;-77
2023/05/08 04:08:28;;;;;;;20.77;13.05;;;;;;;10.00;100.00;102112.91;5024226;28;20053;-77
2023/05/08 04:11:10;;;;;;;22.30;13.45;;;;;;;9.97;100.00;102118.28;5022772;28;20036;-77
2023/05/08 04:13:40;;;;;;;20.83;13.15;;;;;;;9.94;100.00;102113.91;5026580;28;20037;-78
2023/05/08 04:16:13;;;;;;;22.35;13.23;;;;;;;9.94;100.00;102123.63;5026676;28;20056;-77
2023/05/08 04:18:41;;;;;;;;;;;;;;;9.92;100.00;102121.03;5022401;28;20033;-78
2023/05/08 04:21:09;;;;;;;22.77;12.45;;;;;;;9.87;100.00;102131.69;5027544;28;19921;-77
2023/05/08 04:23:36;;;;;;;20.85;12.10;;;;;;;9.84;100.00;102126.47;5026984;28;20029;-77
2023/05/08 04:26:02;;;;;;;21.10;12.35;;;;;;;9.84;100.00;102134.41;5022075;28;20094;-78
2023/05/08 04:28:28;;;;;;;23.70;13.50;;;;;;;9.81;100.00;102125.66;5006233;28;20049;-78
2023/05/08 04:30:54;;;;;;;22.50;12.95;;;;;;;9.81;100.00;102128.31;5025768;28;20672;-78
2023/05/08 04:33:20;;;;;;;21.52;13.02;;;;;;;9.80;100.00;102134.50;5025974;28;20082;-78
2023/05/08 04:35:46;;;;;;;20.55;13.15;;;;;;;9.79;100.00;102133.63;5023645;28;20040;-77
2023/05/08 04:38:12;;;;;;;21.77;12.52;;;;;;;9.81;100.00;102136.25;5026708;28;20091;-77
2023/05/08 04:40:37;;;;;;;21.90;12.38;;;;;;;9.81;100.00;102139.75;5006565;28;20048;-78
2023/05/08 04:43:03;;;;;;;21.98;12.77;;;;;;;9.83;100.00;102137.06;5027229;28;21062;-77
2023/05/08 04:45:28;;;;;;;20.52;12.05;;;;;;;9.83;100.00;102134.44;5005455;28;20107;-78
2023/05/08 04:47:54;;;;;;;21.02;12.70;;;;;;;9.86;100.00;102132.59;5027319;28;20044;-78
2023/05/08 04:50:19;;;;;;;21.15;12.68;;;;;;;9.88;100.00;102130.81;5026388;28;20393;-78
2023/05/08 04:52:45;;;;;;;23.15;12.43;;;;;;;9.89;100.00;102137.84;5025343;28;20074;-78
2023/05/08 04:55:11;;;;;;;21.80;11.82;;;;;;;9.90;100.00;102131.63;5024621;28;20048;-76
2023/05/08 04:57:36;;;;;;;21.63;12.50;;;;;;;9.91;100.00;102124.53;5010664;28;20412;-77
2023/05/08 05:00:03;;;;;;;20.95;13.07;;;;;;;9.94;100.00;102142.13;5026384;28;20064;-77
2023/05/08 05:02:29;;;;;;;21.38;12.30;;;;;;;9.97;100.00;102147.38;5024185;28;21953;-78
2023/05/08 05:04:57;;;;;;;18.42;12.00;;;;;;;9.99;100.00;102134.97;5006504;28;20037;-77
2023/05/08 05:07:23;;;;;;;19.92;12.23;;;;;;;10.01;100.00;102151.66;5026789;28;20084;-77
2023/05/08 05:09:49;;;;;;;20.42;12.43;;;;;;;10.04;100.00;102157.75;5024482;28;20053;-77
2023/05/08 05:12:14;;;;;;;21.98;13.05;;;;;;;10.06;100.00;102160.38;5024911;28;20033;-78
2023/05/08 05:14:43;;;;;;;21.30;13.43;;;;;;;10.08;100.00;102149.78;5025790;28;20048;-78
2023/05/08 05:17:08;;;;;;;21.67;12.27;;;;;;;10.12;100.00;102165.53;5026672;28;20704;-77
2023/05/08 05:19:34;;;;;;;20.92;12.40;;;;;;;10.15;100.00;102162.81;5022981;28;20037;-77
2023/05/08 05:22:00;;;;;;;20.08;11.98;;;;;;;10.17;100.00;102166.31;5027225;28;20462;-77
2023/05/08 05:24:25;;;;;;;19.35;12.27;;;;;;;10.23;100.00;102161.81;5027526;28;20084;-77
2023/05/08 05:26:51;;;;;;;18.85;11.93;;;;;;;10.24;100.00;102155.59;5021815;28;20087;-77
2023/05/08 05:29:17;;;;;;;20.10;12.13;;;;;;;10.28;100.00;102162.53;5026678;28;20037;-77
2023/05/08 05:31:42;;;;;;;20.13;12.50;;;;;;;10.32;100.00;102164.22;5027426;28;20411;-77
2023/05/08 05:34:08;;;;;;;20.10;12.48;;;;;;;10.36;100.00;102171.19;5027335;28;20037;-77
2023/05/08 05:36:33;;;;;;;18.23;12.15;;;;;;;10.42;100.00;102176.34;5024696;28;20399;-77
2023/05/08 05:38:59;;;;;;;20.73;11.65;;;;;;;10.47;100.00;102173.63;5026795;28;20112;-77
2023/05/08 05:41:24;;;;;;;19.80;12.65;;;;;;;10.52;100.00;102176.16;5041508;28;20113;-77
2023/05/08 05:43:50;;;;;;;18.48;11.52;;;;;;;10.61;100.00;102173.28;5025435;28;20658;-76
2023/05/08 05:46:15;;;;;;;18.92;11.48;;;;;;;10.69;100.00;102173.94;5009728;28;20048;-76
2023/05/08 05:48:41;;;;;;;18.02;12.05;;;;;;;10.80;100.00;102178.13;5029645;28;20067;-76
2023/05/08 05:51:07;;;;;;;19.85;12.18;;;;;;;10.93;100.00;102171.59;5028987;28;21243;-75
2023/05/08 05:53:32;;;;;;;16.40;11.10;;;;;;;11.05;100.00;102169.56;5026153;28;20044;-76
2023/05/08 05:55:58;;;;;;;19.70;11.25;;;;;;;11.15;100.00;102165.72;5030221;28;20126;-75
2023/05/08 05:58:23;;;;;;;20.58;12.38;;;;;;;11.18;100.00;102163.03;5030400;28;20044;-75
2023/05/08 06:00:50;;;;;;;17.63;11.23;;;;;;;11.18;100.00;102165.66;5013415;28;21274;-77
2023/05/08 06:03:15;;;;;;;17.33;11.73;;;;;;;11.19;100.00;102178.00;5026488;28;20041;-77
2023/05/08 06:05:41;;;;;;;17.48;11.50;;;;;;;11.23;100.00;102177.00;5027574;28;20044;-77
2023/05/08 06:08:07;;;;;;;18.27;11.55;;;;;;;11.31;100.00;102176.78;5029130;28;20105;-76
2023/05/08 06:10:33;;;;;;;15.88;10.48;;;;;;;11.40;100.00;102175.69;5027108;28;20317;-76
2023/05/08 06:12:59;;;;;;;16.15;10.77;;;;;;;11.51;100.00;102178.88;5011834;28;20458;-76
2023/05/08 06:15:25;;;;;;;17.23;11.70;;;;;;;11.65;100.00;102178.50;5028003;28;20033;-77
2023/05/08 06:17:51;;;;;;;20.35;11.85;;;;;;;11.82;100.00;102172.72;5029671;28;20159;-76
2023/05/08 06:20:17;;;;;;;15.65;10.90;;;;;;;11.94;100.00;102176.78;5026185;28;20033;-76
2023/05/08 06:22:43;;;;;;;16.20;10.70;;;;;;;12.05;100.00;102176.47;5040964;28;20032;-76
2023/05/08 06:25:09;;;;;;;15.57;10.38;;;;;;;12.16;100.00;102180.59;5029120;28;20386;-76
2023/05/08 06:27:35;;;;;;;15.30;10.70;;;;;;;12.28;100.00;102174.03;5026447;28;20400;-76
2023/05/08 06:30:01;;;;;;;16.58;10.85;;;;;;;12.39;100.00;102171.03;5010794;28;20057;-77
2023/05/08 06:32:26;;;;;;;15.77;10.55;;;;;;;12.53;100.00;102173.25;5030511;28;20041;-76
2023/05/08 06:34:52;;;;;;;16.40;11.07;;;;;;;12.67;100.00;102170.13;5030144;28;20047;-76
2023/05/08 06:37:18;;;;;;;15.25;10.88;;;;;;;12.82;100.00;102172.28;5028454;28;20033;-76
2023/05/08 06:39:43;;;;;;;15.63;10.88;;;;;;;12.96;100.00;102170.97;5030095;28;20095;-76
2023/05/08 06:42:09;;;;;;;16.05;11.43;;;;;;;13.14;100.00;102166.78;5030230;28;20040;-76
2023/05/08 06:44:35;;;;;;;14.77;10.13;;;;;;;13.28;100.00;102161.84;5023350;28;20040;-75
2023/05/08 06:47:00;;;;;;;16.10;10.68;;;;;;;13.38;100.00;102162.38;5006145;28;20086;-75
2023/05/08 06:49:26;;;;;;;16.42;10.07;;;;;;;13.53;100.00;102163.66;5024172;28;20037;-77
2023/05/08 06:51:51;;;;;;;14.27;10.07;;;;;;;13.62;100.00;102164.22;5028518;28;20025;-75
2023/05/08 06:54:17;;;;;;;14.48;10.40;;;;;;;13.74;100.00;102160.22;5007476;28;20442;-77
2023/05/08 06:56:43;;;;;;;16.13;10.85;;;;;;;13.87;100.00;102168.59;4989743;28;20047;-76
2023/05/08 06:59:09;;;;;;;15.07;10.73;;;;;;;13.93;100.00;102171.03;5025002;28;21259;-76
2023/05/08 07:01:36;;;;;;;16.02;10.77;;;;;;;14.01;100.00;102163.63;5022187;28;20041;-78
2023/05/08 07:04:04;;;;;;;15.25;10.45;;;;;;;14.15;100.00;102167.56;5024935;28;20029;-84
2023/05/08 07:06:33;;;;;;;14.35;9.55;;;;;;;14.23;100.00;102173.44;5018916;28;20025;-78
2023/05/08 07:09:02;;;;;;;14.60;10.13;;;;;;;14.35;100.00;102169.41;5024763;28;20060;-84
2023/05/08 07:11:28;;;;;;;15.18;10.63;;;;;;;14.48;100.00;102167.97;5002810;28;20135;-80
2023/05/08 07:13:53;;;;;;;13.52;10.02;;;;;;;14.52;100.00;102166.94;5024647;28;20035;-80
2023/05/08 07:16:19;;;;;;;13.10;9.85;;;;;;;14.56;100.00;102162.34;5029043;28;20048;-75
2023/05/08 07:18:44;;;;;;;13.85;9.85;;;;;;;14.50;100.00;102159.94;5027969;28;20032;-88
2023/05/08 07:21:10;;;;;;;14.82;9.80;;;;;;;14.49;100.00;102156.38;5028674;28;20036;-82
2023/05/08 07:23:35;;;;;;;15.20;10.00;;;;;;;14.45;100.00;102153.91;5010485;28;20095;-83
2023/05/08 07:26:01;;;;;;;15.02;10.15;;;;;;;14.40;100.00;102152.28;5011805;28;20051;-79
2023/05/08 07:28:27;;;;;;;14.43;9.80;;;;;;;14.39;100.00;102150.56;5026455;28;20026;-79
2023/05/08 07:30:52;;;;;;;16.77;10.60;;;;;;;14.35;100.00;102151.63;5021378;28;20052;-79
2023/05/08 07:33:18;;;;;;;14.43;9.93;;;;;;;14.34;100.00;102157.03;5025294;28;20041;-76
2023/05/08 07:35:44;;;;;;;13.88;10.02;;;;;;;14.34;100.00;102154.34;5026546;28;20162;-76
2023/05/08 07:38:12;;;;;;;14.02;10.40;;;;;;;14.30;100.00;102163.38;5011681;28;20125;-76
2023/05/08 07:40:37;;;;;;;13.40;10.20;;;;;;;14.28;100.00;102154.59;5029078;28;20045;-76
2023/05/08 07:43:03;;;;;;;14.95;10.25;;;;;;;14.29;100.00;102161.66;5028726;28;20686;-77
2023/05/08 07:45:28;;;;;;;12.98;9.32;;;;;;;14.26;100.00;102163.53;5025092;28;20159;-76
2023/05/08 07:47:56;;;;;;;14.27;10.48;;;;;;;14.22;100.00;102163.72;5029172;28;20044;-77
2023/05/08 07:50:22;;;;;;;14.52;10.23;;;;;;;14.24;100.00;102157.41;5027547;28;20056;-76
2023/05/08 07:52:55;;;;;;;14.98;10.13;;;;;;;14.31;100.00;102151.78;5025910;28;21132;-76
2023/05/08 07:55:20;;;;;;;17.05;10.77;;;;;;;14.37;100.00;102149.78;5027507;28;20037;-76
2023/05/08 07:57:46;;;;;;;14.23;10.27;;;;;;;14.44;100.00;102157.50;5011285;28;20110;-76
2023/05/08 08:00:13;;;;;;;14.82;10.27;;;;;;;14.48;100.00;102151.09;5026402;28;20423;-77
2023/05/08 08:02:39;;;;;;;15.10;10.68;;;;;;;14.53;100.00;102151.78;5019308;28;20033;-80
2023/05/08 08:05:05;;;;;;;15.23;10.73;;;;;;;14.57;100.00;102156.06;5022135;28;20045;-79
2023/05/08 08:07:31;;;;;;;15.85;10.50;;;;;;;14.58;100.00;102149.81;5026096;28;20076;-79
2023/05/08 08:09:58;;;;;;;14.40;10.30;;;;;;;14.62;100.00;102153.22;5013085;28;20102;-79
2023/05/08 08:12:23;;;;;;;14.38;10.35;;;;;;;14.67;100.00;102160.06;5024953;28;20557;-80
2023/05/08 08:14:52;;;;;;;15.40;10.40;;;;;;;14.75;100.00;102154.47;5024932;28;21042;-79
2023/05/08 08:17:17;;;;;;;16.13;10.50;;;;;;;14.78;100.00;102154.31;5022162;28;20167;-79
2023/05/08 08:19:43;;;;;;;14.57;10.10;;;;;;;14.84;100.00;102155.00;5020916;28;20484;-79
2023/05/08 08:22:09;;;;;;;14.73;10.38;;;;;;;14.89;100.00;102148.56;5006332;28;20068;-79
2023/05/08 08:24:35;;;;;;;14.18;10.07;;;;;;;14.97;100.00;102144.69;5025801;28;20043;-81
2023/05/08 08:27:00;;;;;;;15.75;10.90;;;;;;;15.02;100.00;102143.53;5024332;28;20113;-79
2023/05/08 08:29:26;;;;;;;14.80;10.65;;;;;;;15.13;100.00;102145.75;5023681;28;20076;-80
2023/05/08 08:31:52;;;;;;;15.18;11.05;;;;;;;15.26;100.00;102146.03;5024187;28;20123;-76
2023/05/08 08:34:17;;;;;;;13.43;9.93;;;;;;;15.38;100.00;102143.78;4991285;28;20044;-76
2023/05/08 08:36:43;;;;;;;14.68;11.15;;;;;;;15.51;100.00;102139.59;5019685;28;20162;-76
2023/05/08 08:39:09;;;;;;;17.20;10.98;;;;;;;15.58;100.00;102138.38;5020898;28;20747;-78
2023/05/08 08:41:34;;;;;;;15.43;10.40;;;;;;;15.63;100.00;102142.66;5035119;28;20044;-79
2023/05/08 08:44:00;;;;;;;16.40;11.52;;;;;;;15.73;100.00;102149.28;5022284;28;20547;-78
2023/05/08 08:46:26;;;;;;;16.02;11.02;;;;;;;15.85;100.00;102134.53;5003669;28;20037;-80
2023/05/08 08:48:55;;;;;;;16.70;11.35;;;;;;;15.97;100.00;102141.94;5018397;28;20061;-78
2023/05/08 08:51:43;;;;;;;14.40;10.48;;;;;;;16.04;100.00;102145.22;5024052;28;20510;-78
2023/05/08 08:54:13;;;;;;;14.35;10.45;;;;;;;16.12;100.00;102140.34;5025165;28;20174;-79
2023/05/08 08:56:41;;;;;;;14.57;11.13;;;;;;;16.23;100.00;102144.31;5025632;28;20036;-78
2023/05/08 08:59:07;;;;;;;14.98;11.50;;;;;;;16.30;100.00;102145.75;5023450;28;20056;-79
2023/05/08 09:01:37;;;;;;;17.48;11.32;;;;;;;16.37;100.00;102144.50;5026438;28;20021;-84
2023/05/08 09:04:04;;;;;;;15.93;11.15;;;;;;;16.46;100.00;102140.53;5023313;28;20045;-82
2023/05/08 09:06:32;;;;;;;16.23;11.05;;;;;;;16.49;100.00;102145.69;5026144;28;20114;-79
2023/05/08 09:08:57;;;;;;;15.35;11.77;;;;;;;16.47;100.00;102138.69;5017211;28;20045;-76
2023/05/08 09:11:23;;;;;;;15.68;11.13;;;;;;;16.53;100.00;102143.75;5023755;28;20049;-76
2023/05/08 09:13:50;;;;;;;16.45;11.45;;;;;;;16.57;100.00;102139.97;5027173;28;20045;-76
2023/05/08 09:16:16;;;;;;;16.27;11.93;;;;;;;16.67;100.00;102135.88;5023238;28;20036;-76
2023/05/08 09:18:41;;;;;;;14.00;10.98;;;;;;;16.81;100.00;102142.34;5026026;28;20083;-76
2023/05/08 09:21:07;;;;;;;16.42;12.07;;;;;;;16.92;100.00;102142.66;5026080;28;20583;-76
2023/05/08 09:23:34;;;;;;;16.60;11.80;;;;;;;17.08;100.00;102144.56;5027432;28;20045;-77
2023/05/08 09:26:00;;;;;;;18.50;11.68;;;;;;;17.23;100.00;102141.06;5026584;28;20120;-77
2023/05/08 09:28:27;;;;;;;17.45;12.07;;;;;;;17.33;100.00;102144.09;5008505;28;20036;-77
2023/05/08 09:30:57;;;;;;;16.27;11.82;;;;;;;17.60;100.00;102132.00;5027524;28;20784;-79
2023/05/08 09:33:25;;;;;;;15.73;11.52;;;;;;;17.82;100.00;102134.31;5028651;28;20084;-77
2023/05/08 09:35:51;;;;;;;16.45;12.13;;;;;;;18.05;100.00;102135.75;5024994;28;20109;-77
2023/05/08 09:38:40;;;;;;;16.13;12.02;;;;;;;18.24;100.00;102128.50;5028461;28;20037;-78
2023/05/08 09:41:15;;;;;;;15.85;12.25;;;;;;;18.51;100.00;102128.69;5026700;28;20040;-78
2023/05/08 09:43:59;;;;;;;17.75;11.80;;;;;;;18.75;100.00;102125.50;5029574;28;20040;-78
2023/05/08 09:46:26;;;;;;;15.85;11.73;;;;;;;18.93;100.00;102117.28;5027067;28;20451;-76
2023/05/08 09:48:53;;;;;;;16.20;12.25;;;;;;;19.03;100.00;102118.50;5028078;28;20103;-77
2023/05/08 09:51:19;;;;;;;17.23;12.15;;;;;;;19.17;100.00;102114.94;5024319;28;20029;-75
2023/05/08 09:53:55;;;;;;;15.20;11.73;;;;;;;19.38;100.00;102115.44;5024437;28;20056;-76
2023/05/08 09:56:29;;;;;;;17.00;12.68;;;;;;;19.53;100.00;102118.09;5006565;28;20064;-76
2023/05/08 09:58:54;;;;;;;18.17;13.30;;;;;;;19.61;100.00;102115.78;5021129;28;20056;-76
2023/05/08 10:01:34;;;;;;;18.42;12.30;;;;;;;19.60;100.00;102116.75;5028434;28;20033;-76
2023/05/08 10:04:00;;;;;;;19.77;12.90;;;;;;;19.63;100.00;102123.75;5025360;28;20160;-76
2023/05/08 10:06:27;;;;;;;19.70;12.90;;;;;;;19.63;100.00;102111.19;5028064;28;20036;-76
2023/05/08 10:09:11;;;;;;;17.42;12.75;;;;;;;19.68;100.00;102117.09;5021335;28;20627;-76
2023/05/08 10:11:39;;;;;;;15.48;12.30;;;;;;;19.76;100.00;102121.13;5020786;28;20534;-76
2023/05/08 10:14:04;;;;;;;17.85;13.50;;;;;;;19.76;100.00;102111.25;5010433;28;20495;-76
2023/05/08 10:16:35;;;;;;;18.25;13.15;;;;;;;19.80;100.00;102114.59;5018856;28;20095;-77
2023/05/08 10:19:07;;;;;;;17.52;12.73;;;;;;;19.87;100.00;102105.19;5024693;28;20476;-76
2023/05/08 10:21:36;;;;;;;17.92;13.00;;;;;;;19.92;100.00;102111.13;5025812;28;20044;-76
2023/05/08 10:24:04;;;;;;;18.50;13.23;;;;;;;19.91;100.00;102109.41;5010198;28;20037;-76
2023/05/08 10:26:30;;;;;;;17.88;13.50;;;;;;;19.90;100.00;102114.88;5029119;28;20037;-76
2023/05/08 10:29:04;;;;;;;18.23;13.18;;;;;;;19.87;100.00;102104.31;5024801;28;20103;-76
2023/05/08 10:31:42;;;;;;;17.95;12.60;;;;;;;19.83;100.00;102108.16;5026149;28;20061;-75
2023/05/08 10:34:13;;;;;;;18.70;13.73;;;;;;;19.80;100.00;102109.22;5029163;28;20036;-76
2023/05/08 10:36:39;;;;;;;19.50;13.95;;;;;;;19.83;100.00;102109.00;5025961;28;20131;-75
2023/05/08 10:39:05;;;;;;;18.98;13.07;;;;;;;19.84;100.00;102105.38;5024563;28;20649;-77
2023/05/08 10:41:31;;;;;;;18.10;13.35;;;;;;;19.90;100.00;102113.06;5028103;28;20037;-78
2023/05/08 10:43:58;;;;;;;19.10;13.65;;;;;;;20.00;100.00;102099.03;5027591;28;20029;-78
2023/05/08 10:46:39;;;;;;;19.25;13.52;;;;;;;20.07;100.00;102101.22;5025050;28;20056;-77
2023/05/08 10:49:18;;;;;;;17.97;13.07;;;;;;;20.17;100.00;102101.47;5021400;28;20094;-78
2023/05/08 10:51:43;;;;;;;19.15;13.52;;;;;;;20.25;100.00;102097.41;5027805;28;20041;-77
2023/05/08 10:54:30;;;;;;;18.20;13.32;;;;;;;20.24;100.00;102098.34;5026787;28;20041;-77
2023/05/08 10:57:08;;;;;;;20.52;13.70;;;;;;;20.26;100.00;102094.59;5024085;28;20041;-77
2023/05/08 10:59:35;;;;;;;20.00;13.98;;;;;;;20.21;100.00;102097.59;5022696;28;20039;-79
2023/05/08 11:02:07;;;;;;;19.48;14.10;;;;;;;20.27;100.00;102101.69;5023758;28;20236;-78
2023/05/08 11:04:33;;;;;;;18.73;13.48;;;;;;;20.35;100.00;102099.38;5017769;28;20035;-77
2023/05/08 11:06:59;;;;;;;19.13;12.85;;;;;;;20.35;100.00;102095.81;5026382;28;20029;-78
2023/05/08 11:09:29;;;;;;;17.75;13.63;;;;;;;20.38;100.00;102097.44;5025645;28;20041;-78